VIR358 EGLL-VABB
Flight info
| Callsign | VIR358 |
|---|---|
| Flight time | N/A |
| Altitude | 39000 |
| Route | DET L6 DVR UL9 KONAN UL607 FERDI DCT REMBA DCT MATUG DCT GUBAX DCT BARSU DCT MOOCE DCT RUDNO DCT DEXIT DCT BEGLA DCT BALUX DCT IRLOX DCT OPT DCT LUGEB DCT UDROS DCT CRM UM11 REBLO P130 MAMED B449 DOLOS B475 NINOP A909 LEMOD N644 REGET G325 ZB G202 RK P628 VIKIT Z8 AAE R458 BOFIN POKON2A |
| Aircraft | A35K/H-SDE2E3GHIJ3J4J5LM1ORWXY/LB1D1 |
Departure
| Time | 2026-05-06 09:16 |
|---|---|
| Airport | London Heathrow Airport (EGLL) |
Arrival
| Time | N/A |
|---|---|
| Airport | Chhatrapati Shivaji Maharaj International Airport (VABB) |
| Time | Latitude | Longitude | Altitude | Speed | Heading |
|---|---|---|---|---|---|
| 2026-05-06 08:37 | 51.47431 | -0.46316 | 96 ft | 0 kts | 199° |
| 2026-05-06 08:37 | 51.47431 | -0.46314 | 97 ft | 0 kts | 199° |
| 2026-05-06 08:38 | 51.47431 | -0.46312 | 93 ft | 0 kts | 199° |
| 2026-05-06 08:39 | 51.47431 | -0.46315 | 93 ft | 0 kts | 199° |
| 2026-05-06 08:39 | 51.47435 | -0.46314 | 93 ft | 7 kts | 199° |
| 2026-05-06 08:40 | 51.47431 | -0.46316 | 92 ft | 0 kts | 199° |
| 2026-05-06 08:57 | 51.47439 | -0.46312 | 95 ft | 4 kts | 199° |
| 2026-05-06 08:58 | 51.47464 | -0.46298 | 95 ft | 4 kts | 199° |
| 2026-05-06 08:58 | 51.47483 | -0.46288 | 94 ft | 4 kts | 200° |
| 2026-05-06 08:58 | 51.47506 | -0.46268 | 92 ft | 4 kts | 229° |
| 2026-05-06 08:58 | 51.47517 | -0.46233 | 93 ft | 3 kts | 269° |
| 2026-05-06 08:59 | 51.47517 | -0.46193 | 91 ft | 4 kts | 270° |
| 2026-05-06 08:59 | 51.47517 | -0.46173 | 92 ft | 0 kts | 270° |
| 2026-05-06 09:01 | 51.47517 | -0.46178 | 92 ft | 2 kts | 270° |
| 2026-05-06 09:02 | 51.47517 | -0.46242 | 92 ft | 10 kts | 269° |
| 2026-05-06 09:02 | 51.47516 | -0.46348 | 92 ft | 12 kts | 270° |
| 2026-05-06 09:02 | 51.47516 | -0.46407 | 94 ft | 11 kts | 270° |
| 2026-05-06 09:02 | 51.47516 | -0.46542 | 92 ft | 14 kts | 270° |
| 2026-05-06 09:03 | 51.47506 | -0.46716 | 95 ft | 16 kts | 254° |
| 2026-05-06 09:03 | 51.47487 | -0.46868 | 96 ft | 11 kts | 243° |
| 2026-05-06 09:03 | 51.47425 | -0.46884 | 94 ft | 11 kts | 171° |
| 2026-05-06 09:03 | 51.47317 | -0.46867 | 92 ft | 19 kts | 180° |
| 2026-05-06 09:04 | 51.47202 | -0.46865 | 94 ft | 15 kts | 179° |
| 2026-05-06 09:04 | 51.47105 | -0.46864 | 92 ft | 13 kts | 179° |
| 2026-05-06 09:04 | 51.47019 | -0.46864 | 92 ft | 13 kts | 179° |
| 2026-05-06 09:04 | 51.46915 | -0.46863 | 94 ft | 15 kts | 179° |
| 2026-05-06 09:05 | 51.46854 | -0.46862 | 94 ft | 0 kts | 179° |
| 2026-05-06 09:05 | 51.46849 | -0.46862 | 94 ft | 1 kts | 179° |
| 2026-05-06 09:05 | 51.46838 | -0.46862 | 94 ft | 0 kts | 179° |
| 2026-05-06 09:07 | 51.46836 | -0.46862 | 94 ft | 1 kts | 179° |
| 2026-05-06 09:07 | 51.46820 | -0.46861 | 94 ft | 3 kts | 179° |
| 2026-05-06 09:08 | 51.46782 | -0.46861 | 94 ft | 7 kts | 179° |
| 2026-05-06 09:08 | 51.46757 | -0.46886 | 95 ft | 4 kts | 243° |
| 2026-05-06 09:08 | 51.46747 | -0.46965 | 96 ft | 11 kts | 264° |
| 2026-05-06 09:08 | 51.46746 | -0.47134 | 95 ft | 22 kts | 270° |
| 2026-05-06 09:09 | 51.46746 | -0.47380 | 95 ft | 22 kts | 270° |
| 2026-05-06 09:09 | 51.46745 | -0.47636 | 94 ft | 23 kts | 269° |
| 2026-05-06 09:09 | 51.46744 | -0.47893 | 92 ft | 24 kts | 270° |
| 2026-05-06 09:09 | 51.46743 | -0.48162 | 92 ft | 24 kts | 270° |
| 2026-05-06 09:10 | 51.46742 | -0.48433 | 92 ft | 24 kts | 270° |
| 2026-05-06 09:10 | 51.46741 | -0.48670 | 92 ft | 16 kts | 269° |
| 2026-05-06 09:10 | 51.46712 | -0.48738 | 95 ft | 8 kts | 199° |
| 2026-05-06 09:10 | 51.46662 | -0.48747 | 93 ft | 7 kts | 187° |
| 2026-05-06 09:11 | 51.46616 | -0.48763 | 95 ft | 4 kts | 193° |
| 2026-05-06 09:11 | 51.46613 | -0.48764 | 95 ft | 0 kts | 194° |
| 2026-05-06 09:14 | 51.46591 | -0.48773 | 94 ft | 9 kts | 194° |
| 2026-05-06 09:14 | 51.46515 | -0.48771 | 95 ft | 12 kts | 153° |
| 2026-05-06 09:14 | 51.46479 | -0.48634 | 94 ft | 15 kts | 91° |
| 2026-05-06 09:15 | 51.46480 | -0.48301 | 94 ft | 54 kts | 90° |
| 2026-05-06 09:15 | 51.46482 | -0.47320 | 95 ft | 120 kts | 90° |
| 2026-05-06 09:15 | 51.46487 | -0.45671 | 94 ft | 174 kts | 89° |
| 2026-05-06 09:15 | 51.46479 | -0.43591 | 585 ft | 186 kts | 87° |
| 2026-05-06 09:16 | 51.46247 | -0.41591 | 1487 ft | 188 kts | 110° |
| 2026-05-06 09:16 | 51.45659 | -0.39562 | 1925 ft | 214 kts | 111° |
| 2026-05-06 09:16 | 51.44958 | -0.37331 | 2259 ft | 234 kts | 113° |
| 2026-05-06 09:16 | 51.44274 | -0.34837 | 2602 ft | 251 kts | 108° |
| 2026-05-06 09:17 | 51.43656 | -0.32211 | 3354 ft | 252 kts | 106° |
| 2026-05-06 09:17 | 51.43055 | -0.29536 | 3973 ft | 259 kts | 105° |
| 2026-05-06 09:17 | 51.42564 | -0.26727 | 4522 ft | 266 kts | 98° |
| 2026-05-06 09:17 | 51.42154 | -0.23803 | 5163 ft | 271 kts | 98° |
| 2026-05-06 09:18 | 51.41749 | -0.20821 | 5847 ft | 276 kts | 98° |
| 2026-05-06 09:18 | 51.41335 | -0.17787 | 6530 ft | 280 kts | 99° |
| 2026-05-06 09:18 | 51.40920 | -0.14760 | 7215 ft | 283 kts | 99° |
| 2026-05-06 09:18 | 51.40498 | -0.11674 | 7987 ft | 285 kts | 100° |
| 2026-05-06 09:19 | 51.40066 | -0.08564 | 8777 ft | 286 kts | 100° |
| 2026-05-06 09:19 | 51.39633 | -0.05446 | 9543 ft | 288 kts | 101° |
| 2026-05-06 09:19 | 51.39194 | -0.02289 | 10252 ft | 294 kts | 100° |
| 2026-05-06 09:19 | 51.38739 | 0.00992 | 10590 ft | 312 kts | 100° |
| 2026-05-06 09:20 | 51.38253 | 0.04502 | 10877 ft | 332 kts | 101° |
| 2026-05-06 09:20 | 51.37737 | 0.08205 | 11187 ft | 350 kts | 101° |
| 2026-05-06 09:20 | 51.37192 | 0.12102 | 11489 ft | 367 kts | 101° |
| 2026-05-06 09:20 | 51.36618 | 0.16183 | 11782 ft | 384 kts | 101° |
| 2026-05-06 09:21 | 51.36024 | 0.20412 | 12267 ft | 393 kts | 101° |
| 2026-05-06 09:21 | 51.35425 | 0.24652 | 12964 ft | 396 kts | 102° |
| 2026-05-06 09:21 | 51.34808 | 0.28991 | 13550 ft | 404 kts | 102° |
| 2026-05-06 09:21 | 51.34179 | 0.33411 | 14120 ft | 409 kts | 102° |
| 2026-05-06 09:22 | 51.33544 | 0.37855 | 14772 ft | 411 kts | 102° |
| 2026-05-06 09:22 | 51.32905 | 0.42324 | 15382 ft | 415 kts | 102° |
| 2026-05-06 09:22 | 51.32253 | 0.46868 | 15944 ft | 422 kts | 102° |
| 2026-05-06 09:22 | 51.31598 | 0.51455 | 16641 ft | 423 kts | 102° |
| 2026-05-06 09:23 | 51.30936 | 0.56041 | 17300 ft | 426 kts | 103° |
| 2026-05-06 09:23 | 51.30264 | 0.60683 | 17819 ft | 432 kts | 102° |
| 2026-05-06 09:23 | 51.29524 | 0.65356 | 18033 ft | 433 kts | 105° |
| 2026-05-06 09:23 | 51.28689 | 0.69972 | 18044 ft | 433 kts | 106° |
| 2026-05-06 09:24 | 51.27806 | 0.74581 | 18038 ft | 434 kts | 107° |
| 2026-05-06 09:24 | 51.26913 | 0.79191 | 18020 ft | 435 kts | 107° |
| 2026-05-06 09:24 | 51.26026 | 0.83813 | 18010 ft | 434 kts | 107° |
| 2026-05-06 09:24 | 51.25165 | 0.88360 | 17995 ft | 434 kts | 106° |
| 2026-05-06 09:25 | 51.24299 | 0.92978 | 17985 ft | 436 kts | 106° |
| 2026-05-06 09:25 | 51.23505 | 0.97654 | 18313 ft | 437 kts | 101° |
| 2026-05-06 09:25 | 51.22922 | 1.02399 | 19018 ft | 435 kts | 100° |
| 2026-05-06 09:25 | 51.22396 | 1.07181 | 19590 ft | 440 kts | 99° |
| 2026-05-06 09:26 | 51.21906 | 1.12017 | 20159 ft | 443 kts | 98° |
| 2026-05-06 09:26 | 51.21435 | 1.16887 | 20815 ft | 445 kts | 98° |
| 2026-05-06 09:26 | 51.20966 | 1.21790 | 21323 ft | 450 kts | 99° |
| 2026-05-06 09:26 | 51.20491 | 1.26748 | 21890 ft | 453 kts | 99° |
| 2026-05-06 09:27 | 51.20009 | 1.31726 | 22538 ft | 456 kts | 99° |
| 2026-05-06 09:27 | 51.19517 | 1.36758 | 22998 ft | 462 kts | 99° |
| 2026-05-06 09:27 | 51.19022 | 1.41763 | 23577 ft | 464 kts | 100° |
| 2026-05-06 09:27 | 51.18515 | 1.46853 | 24108 ft | 466 kts | 99° |
| 2026-05-06 09:28 | 51.18003 | 1.51971 | 24560 ft | 470 kts | 99° |
| 2026-05-06 09:28 | 51.17485 | 1.57117 | 25107 ft | 471 kts | 99° |
| 2026-05-06 09:28 | 51.16963 | 1.62281 | 25594 ft | 474 kts | 100° |
| 2026-05-06 09:28 | 51.16431 | 1.67484 | 26048 ft | 477 kts | 101° |
| 2026-05-06 09:29 | 51.15856 | 1.72699 | 26536 ft | 479 kts | 102° |
| 2026-05-06 09:29 | 51.15264 | 1.77944 | 26950 ft | 482 kts | 102° |
| 2026-05-06 09:29 | 51.14676 | 1.83217 | 27378 ft | 485 kts | 101° |
| 2026-05-06 09:29 | 51.14100 | 1.88515 | 27862 ft | 487 kts | 101° |
| 2026-05-06 09:30 | 51.13533 | 1.93830 | 28333 ft | 488 kts | 101° |
| 2026-05-06 09:30 | 51.12971 | 1.99171 | 28830 ft | 488 kts | 101° |
| 2026-05-06 09:30 | 51.12461 | 2.04530 | 29269 ft | 490 kts | 99° |
| 2026-05-06 09:30 | 51.12132 | 2.09910 | 29857 ft | 488 kts | 97° |
| 2026-05-06 09:31 | 51.11966 | 2.13467 | 30214 ft | 486 kts | 96° |
| 2026-05-06 09:31 | 51.11741 | 2.18826 | 30647 ft | 485 kts | 96° |
| 2026-05-06 09:31 | 51.11510 | 2.24191 | 31023 ft | 485 kts | 96° |
| 2026-05-06 09:31 | 51.11258 | 2.29559 | 31403 ft | 485 kts | 96° |
| 2026-05-06 09:32 | 51.10985 | 2.34907 | 31772 ft | 484 kts | 97° |
| 2026-05-06 09:32 | 51.10695 | 2.40248 | 32149 ft | 483 kts | 97° |
| 2026-05-06 09:32 | 51.10396 | 2.45559 | 32567 ft | 481 kts | 97° |
| 2026-05-06 09:32 | 51.10092 | 2.50848 | 32905 ft | 481 kts | 97° |
| 2026-05-06 09:33 | 51.09787 | 2.56084 | 33203 ft | 481 kts | 97° |
| 2026-05-06 09:33 | 51.09467 | 2.61381 | 33513 ft | 480 kts | 98° |
| 2026-05-06 09:33 | 51.08888 | 2.66606 | 33844 ft | 479 kts | 105° |
| 2026-05-06 09:33 | 51.08064 | 2.71750 | 34046 ft | 480 kts | 107° |
| 2026-05-06 09:34 | 51.07172 | 2.76882 | 34236 ft | 481 kts | 108° |
| 2026-05-06 09:34 | 51.06245 | 2.81996 | 34435 ft | 481 kts | 108° |
| 2026-05-06 09:34 | 51.05301 | 2.87109 | 34685 ft | 480 kts | 108° |
| 2026-05-06 09:34 | 51.04373 | 2.92119 | 34980 ft | 478 kts | 109° |
| 2026-05-06 09:35 | 51.03434 | 2.97181 | 35139 ft | 479 kts | 109° |
| 2026-05-06 09:35 | 51.02492 | 3.02278 | 35258 ft | 481 kts | 109° |
| 2026-05-06 09:35 | 51.01553 | 3.07368 | 35402 ft | 482 kts | 109° |
| 2026-05-06 09:35 | 51.00608 | 3.12490 | 35576 ft | 482 kts | 109° |
| 2026-05-06 09:36 | 50.99663 | 3.17603 | 35732 ft | 483 kts | 109° |
| 2026-05-06 09:36 | 50.98716 | 3.22724 | 35880 ft | 483 kts | 109° |
| 2026-05-06 09:36 | 50.97765 | 3.27845 | 36007 ft | 484 kts | 109° |
| 2026-05-06 09:36 | 50.96812 | 3.32966 | 36169 ft | 484 kts | 109° |
| 2026-05-06 09:37 | 50.95858 | 3.38084 | 36365 ft | 483 kts | 109° |
| 2026-05-06 09:37 | 50.94900 | 3.43204 | 36495 ft | 484 kts | 109° |
| 2026-05-06 09:37 | 50.93953 | 3.48252 | 36625 ft | 484 kts | 109° |
| 2026-05-06 09:37 | 50.92989 | 3.53372 | 36764 ft | 485 kts | 110° |
| 2026-05-06 09:38 | 50.92021 | 3.58500 | 36863 ft | 486 kts | 110° |
| 2026-05-06 09:38 | 50.90080 | 3.68764 | 36876 ft | 486 kts | 110° |
| 2026-05-06 09:39 | 50.88127 | 3.79014 | 36868 ft | 486 kts | 110° |
| 2026-05-06 09:39 | 50.86160 | 3.89262 | 36870 ft | 486 kts | 110° |
| 2026-05-06 09:40 | 50.84196 | 3.99443 | 36866 ft | 486 kts | 110° |
| 2026-05-06 09:40 | 50.81215 | 4.14807 | 36871 ft | 487 kts | 110° |
| 2026-05-06 09:41 | 50.79218 | 4.25035 | 36873 ft | 487 kts | 110° |
| 2026-05-06 09:41 | 50.77216 | 4.35231 | 36879 ft | 486 kts | 110° |
| 2026-05-06 09:42 | 50.75213 | 4.45375 | 36877 ft | 486 kts | 110° |
| 2026-05-06 09:42 | 50.73193 | 4.55556 | 36873 ft | 486 kts | 110° |
| 2026-05-06 09:43 | 50.71165 | 4.65722 | 36871 ft | 486 kts | 110° |
| 2026-05-06 09:43 | 50.69126 | 4.75892 | 36848 ft | 485 kts | 111° |
| 2026-05-06 09:44 | 50.67081 | 4.86037 | 36844 ft | 485 kts | 111° |
| 2026-05-06 09:44 | 50.65088 | 4.96143 | 36842 ft | 486 kts | 109° |
| 2026-05-06 09:45 | 50.63419 | 5.06472 | 36838 ft | 486 kts | 107° |
| 2026-05-06 09:45 | 50.61819 | 5.16819 | 36832 ft | 486 kts | 107° |
| 2026-05-06 09:46 | 50.60161 | 5.27152 | 36835 ft | 487 kts | 108° |
| 2026-05-06 09:46 | 50.58453 | 5.37502 | 36835 ft | 487 kts | 108° |
| 2026-05-06 09:47 | 50.56731 | 5.47815 | 36828 ft | 487 kts | 108° |
| 2026-05-06 09:47 | 50.55011 | 5.58060 | 36818 ft | 487 kts | 108° |
| 2026-05-06 09:48 | 50.53270 | 5.68383 | 36823 ft | 489 kts | 109° |
| 2026-05-06 09:48 | 50.51516 | 5.78724 | 36816 ft | 489 kts | 109° |
| 2026-05-06 09:49 | 50.49755 | 5.89049 | 36815 ft | 489 kts | 109° |
| 2026-05-06 09:49 | 50.47996 | 5.99301 | 36805 ft | 488 kts | 109° |
| 2026-05-06 09:50 | 50.46217 | 6.09606 | 36804 ft | 488 kts | 109° |
| 2026-05-06 09:50 | 50.44433 | 6.19881 | 36788 ft | 488 kts | 109° |
| 2026-05-06 09:51 | 50.42640 | 6.30150 | 36765 ft | 487 kts | 109° |
| 2026-05-06 09:51 | 50.41223 | 6.40497 | 36771 ft | 491 kts | 102° |
| 2026-05-06 09:52 | 50.40340 | 6.51114 | 36757 ft | 491 kts | 101° |
| 2026-05-06 09:52 | 50.39538 | 6.61734 | 36759 ft | 491 kts | 101° |
| 2026-05-06 09:53 | 50.38729 | 6.72379 | 36767 ft | 491 kts | 101° |
| 2026-05-06 09:53 | 50.37898 | 6.83008 | 36768 ft | 491 kts | 101° |
| 2026-05-06 09:54 | 50.37056 | 6.93569 | 36766 ft | 491 kts | 101° |
| 2026-05-06 09:54 | 50.36198 | 7.04193 | 36767 ft | 492 kts | 101° |
| 2026-05-06 09:55 | 50.35329 | 7.14843 | 36769 ft | 493 kts | 102° |
| 2026-05-06 09:55 | 50.34448 | 7.25502 | 36766 ft | 493 kts | 102° |
| 2026-05-06 09:56 | 50.33564 | 7.36090 | 36766 ft | 493 kts | 102° |
| 2026-05-06 09:56 | 50.32666 | 7.46744 | 36756 ft | 494 kts | 102° |
| 2026-05-06 09:57 | 50.31756 | 7.57418 | 36750 ft | 495 kts | 102° |
| 2026-05-06 09:57 | 50.30834 | 7.68104 | 36750 ft | 495 kts | 102° |
| 2026-05-06 09:58 | 50.29904 | 7.78764 | 36741 ft | 495 kts | 102° |
| 2026-05-06 09:58 | 50.28969 | 7.89362 | 36742 ft | 495 kts | 102° |
| 2026-05-06 09:59 | 50.27818 | 7.99965 | 36754 ft | 494 kts | 107° |
| 2026-05-06 09:59 | 50.26273 | 8.10430 | 36761 ft | 494 kts | 108° |
| 2026-05-06 10:00 | 50.24714 | 8.20882 | 36768 ft | 494 kts | 107° |
| 2026-05-06 10:00 | 50.23207 | 8.31389 | 36762 ft | 495 kts | 107° |
| 2026-05-06 10:01 | 50.21720 | 8.41914 | 36783 ft | 497 kts | 107° |
| 2026-05-06 10:01 | 50.20235 | 8.52388 | 36763 ft | 497 kts | 107° |
| 2026-05-06 10:02 | 50.18729 | 8.62917 | 36765 ft | 497 kts | 107° |
| 2026-05-06 10:02 | 50.17209 | 8.73455 | 36765 ft | 497 kts | 107° |
| 2026-05-06 10:03 | 50.15680 | 8.83981 | 36763 ft | 497 kts | 108° |
| 2026-05-06 10:03 | 50.14144 | 8.94479 | 36762 ft | 497 kts | 108° |
| 2026-05-06 10:04 | 50.12598 | 9.04981 | 36759 ft | 497 kts | 108° |
| 2026-05-06 10:04 | 50.11052 | 9.15411 | 36773 ft | 497 kts | 108° |
| 2026-05-06 10:05 | 50.09484 | 9.25910 | 36765 ft | 498 kts | 108° |